createdAt,value
2018-02-08T00:00:47.908Z,20.77
2018-02-08T00:03:21.728Z,20.20
2018-02-08T00:05:56.909Z,19.62
2018-02-08T00:08:32.525Z,19.05
2018-02-08T00:11:14.247Z,20.52
2018-02-08T00:13:42.861Z,20.67
2018-02-08T00:16:09.695Z,19.42
2018-02-08T00:18:41.640Z,18.90
2018-02-08T00:21:16.225Z,17.90
2018-02-08T00:23:53.079Z,21.75
2018-02-08T00:26:22.550Z,22.40
2018-02-08T00:28:56.212Z,23.33
2018-02-08T00:31:33.491Z,25.58
2018-02-08T00:34:08.838Z,23.70
2018-02-08T00:36:36.554Z,27.45
2018-02-08T00:39:04.776Z,28.80
2018-02-08T00:41:36.398Z,22.50
2018-02-08T00:44:09.341Z,25.98
2018-02-08T00:46:37.422Z,25.48
2018-02-08T00:49:06.051Z,21.37
2018-02-08T00:51:33.552Z,23.30
2018-02-08T00:54:01.891Z,21.40
2018-02-08T00:56:32.788Z,23.95
2018-02-08T00:59:04.604Z,23.90
2018-02-08T01:01:31.917Z,25.02
2018-02-08T01:04:02.701Z,21.25
2018-02-08T01:06:29.353Z,26.90
2018-02-08T01:08:56.198Z,23.08
2018-02-08T01:11:22.889Z,20.45
2018-02-08T01:13:53.669Z,24.92
2018-02-08T01:16:24.487Z,24.87
2018-02-08T01:18:52.071Z,22.92
2018-02-08T01:21:21.802Z,27.67
2018-02-08T01:23:50.185Z,27.65
2018-02-08T01:26:16.891Z,28.80
2018-02-08T01:28:44.252Z,26.60
2018-02-08T01:31:16.922Z,27.35
2018-02-08T01:33:44.527Z,20.35
2018-02-08T01:36:11.539Z,28.27
2018-02-08T01:38:38.183Z,24.50
2018-02-08T01:41:19.120Z,26.10
2018-02-08T01:43:49.502Z,24.15
2018-02-08T01:46:23.980Z,25.42
2018-02-08T01:48:54.694Z,21.12
2018-02-08T01:51:21.731Z,20.45
2018-02-08T01:53:50.658Z,22.20
2018-02-08T01:56:18.369Z,21.12
2018-02-08T01:58:45.040Z,25.08
2018-02-08T02:01:18.547Z,23.08
2018-02-08T02:03:45.194Z,19.30
2018-02-08T02:06:14.795Z,25.67
2018-02-08T02:08:45.623Z,35.30
2018-02-08T02:11:13.022Z,21.02
2018-02-08T02:13:39.722Z,20.30
2018-02-08T02:16:07.391Z,19.50
2018-02-08T02:18:34.684Z,18.23
2018-02-08T02:21:05.131Z,22.50
2018-02-08T02:23:38.107Z,21.75
2018-02-08T02:26:13.075Z,19.52
2018-02-08T02:28:40.000Z,18.02
2018-02-08T02:31:10.595Z,26.33
2018-02-08T02:33:38.279Z,21.17
2018-02-08T02:36:05.007Z,25.98
2018-02-08T02:38:35.428Z,19.83
2018-02-08T02:41:02.880Z,22.02
2018-02-08T02:43:34.940Z,23.23
2018-02-08T02:46:12.416Z,21.02
2018-02-08T02:48:39.164Z,18.12
2018-02-08T02:51:07.159Z,18.58
2018-02-08T02:53:34.316Z,21.77
2018-02-08T02:56:02.305Z,20.45
2018-02-08T02:58:29.421Z,22.45
2018-02-08T03:00:56.073Z,18.67
2018-02-08T03:03:23.363Z,19.37
2018-02-08T03:05:54.064Z,23.55
2018-02-08T03:08:20.751Z,18.95
2018-02-08T03:10:52.347Z,18.23
2018-02-08T03:13:19.588Z,21.35
2018-02-08T03:15:47.874Z,17.15
2018-02-08T03:18:24.461Z,21.23
2018-02-08T03:20:52.093Z,21.70
2018-02-08T03:23:18.792Z,19.25
2018-02-08T03:25:46.380Z,21.02
2018-02-08T03:28:14.218Z,17.65
2018-02-08T03:30:46.393Z,21.55
2018-02-08T03:33:16.852Z,21.75
2018-02-08T03:35:43.494Z,20.67
2018-02-08T03:38:11.979Z,21.42
2018-02-08T03:40:38.719Z,19.85
2018-02-08T03:43:05.963Z,23.33
2018-02-08T03:45:32.723Z,20.88
2018-02-08T03:48:00.322Z,18.15
2018-02-08T03:50:27.568Z,22.45
2018-02-08T03:52:54.194Z,24.00
2018-02-08T03:55:20.890Z,19.92
2018-02-08T03:57:47.761Z,16.40
2018-02-08T04:00:22.429Z,18.35
2018-02-08T04:02:49.786Z,21.58
2018-02-08T04:05:17.372Z,20.15
2018-02-08T04:07:48.572Z,17.67
2018-02-08T04:10:19.202Z,20.37
2018-02-08T04:12:49.945Z,22.85
2018-02-08T04:15:26.472Z,18.98
2018-02-08T04:17:57.703Z,16.48
2018-02-08T04:20:24.797Z,20.25
2018-02-08T04:22:55.999Z,19.25
2018-02-08T04:25:26.814Z,18.70
2018-02-08T04:27:54.174Z,18.67
2018-02-08T04:30:21.512Z,19.08
2018-02-08T04:32:52.700Z,13.70
2018-02-08T04:35:20.839Z,19.80
2018-02-08T04:37:49.575Z,17.87
2018-02-08T04:40:25.967Z,22.10
2018-02-08T04:42:58.505Z,21.65
2018-02-08T04:45:31.545Z,17.60
2018-02-08T04:48:17.210Z,14.73
2018-02-08T04:50:48.087Z,16.40
2018-02-08T04:53:14.769Z,22.42
2018-02-08T04:55:42.091Z,19.48
2018-02-08T04:58:09.509Z,18.45
2018-02-08T05:00:40.708Z,21.73
2018-02-08T05:03:07.424Z,18.62
2018-02-08T05:05:45.834Z,19.90
2018-02-08T05:08:13.154Z,16.23
2018-02-08T05:10:39.963Z,20.70
2018-02-08T05:13:10.691Z,18.77
2018-02-08T05:15:37.340Z,16.77
2018-02-08T05:18:03.974Z,18.83
2018-02-08T05:20:30.834Z,19.75
2018-02-08T05:22:57.787Z,20.40
2018-02-08T05:25:25.044Z,21.37
2018-02-08T05:27:52.424Z,17.30
2018-02-08T05:30:19.130Z,16.33
2018-02-08T05:32:50.092Z,16.85
2018-02-08T05:35:17.768Z,19.85
2018-02-08T05:37:45.214Z,19.73
2018-02-08T05:40:12.005Z,20.42
2018-02-08T05:42:38.813Z,19.80
2018-02-08T05:45:09.917Z,18.58
2018-02-08T05:47:44.756Z,18.80
2018-02-08T05:50:12.856Z,18.48
2018-02-08T05:52:45.971Z,18.08
2018-02-08T05:55:17.999Z,19.02
2018-02-08T05:57:44.771Z,18.75
2018-02-08T06:00:15.642Z,17.58
2018-02-08T06:02:43.684Z,16.55
2018-02-08T06:05:19.368Z,22.30
2018-02-08T06:07:50.409Z,19.60
2018-02-08T06:10:17.347Z,20.73
2018-02-08T06:12:44.071Z,18.23
2018-02-08T06:15:10.782Z,18.10
2018-02-08T06:17:38.922Z,18.85
2018-02-08T06:20:09.385Z,19.77
2018-02-08T06:22:37.962Z,17.25
2018-02-08T06:25:08.701Z,17.83
2018-02-08T06:27:43.632Z,26.42
2018-02-08T06:30:11.573Z,21.27
2018-02-08T06:32:42.162Z,22.27
2018-02-08T06:35:11.468Z,19.83
2018-02-08T06:37:40.045Z,19.50
2018-02-08T06:40:15.472Z,18.48
2018-02-08T06:42:48.295Z,19.75
2018-02-08T06:45:14.973Z,21.27
2018-02-08T06:47:42.478Z,21.92
2018-02-08T06:50:09.120Z,22.67
2018-02-08T06:52:37.312Z,23.27
2018-02-08T06:55:09.146Z,18.37
2018-02-08T06:57:40.515Z,21.98
2018-02-08T07:00:08.029Z,18.73
2018-02-08T07:02:37.856Z,21.70
2018-02-08T07:05:04.499Z,24.45
2018-02-08T07:07:31.133Z,18.90
2018-02-08T07:09:57.779Z,22.62
2018-02-08T07:12:24.468Z,19.37
2018-02-08T07:14:52.521Z,16.65
2018-02-08T07:17:19.175Z,19.10
2018-02-08T07:19:46.251Z,22.62
2018-02-08T07:22:13.011Z,19.33
2018-02-08T07:24:39.642Z,19.65
2018-02-08T07:27:06.348Z,21.15
2018-02-08T07:29:32.975Z,18.33
2018-02-08T07:31:59.627Z,19.65
2018-02-08T07:34:26.252Z,22.45
2018-02-08T07:36:52.883Z,25.45
2018-02-08T07:39:19.552Z,23.23
2018-02-08T07:41:46.179Z,24.00
2018-02-08T07:44:12.859Z,25.23
2018-02-08T07:46:39.475Z,24.60
2018-02-08T07:49:06.179Z,22.83
2018-02-08T07:51:32.824Z,23.92
2018-02-08T07:53:59.475Z,27.10
2018-02-08T07:56:26.104Z,23.67
2018-02-08T07:58:52.731Z,24.33
2018-02-08T08:01:19.371Z,22.90
2018-02-08T08:03:46.040Z,24.80
2018-02-08T08:06:12.655Z,24.15
2018-02-08T08:08:39.322Z,25.30
2018-02-08T08:11:05.983Z,22.80
2018-02-08T08:13:32.612Z,26.92
2018-02-08T08:15:59.789Z,23.27
2018-02-08T08:18:26.421Z,22.90
2018-02-08T08:20:53.059Z,26.02
2018-02-08T08:23:19.693Z,21.70
2018-02-08T08:25:46.361Z,24.95
2018-02-08T08:28:13.050Z,25.75
2018-02-08T08:30:39.748Z,23.70
2018-02-08T08:33:06.436Z,25.73
2018-02-08T08:35:33.717Z,22.13
2018-02-08T08:38:00.512Z,22.80
2018-02-08T08:40:27.152Z,29.15
2018-02-08T08:42:54.159Z,25.30
2018-02-08T08:45:20.920Z,25.92
2018-02-08T08:47:47.568Z,26.52
2018-02-08T08:50:14.218Z,27.20
2018-02-08T08:52:40.889Z,27.62
2018-02-08T08:55:08.371Z,26.58
2018-02-08T08:57:35.007Z,36.85
2018-02-08T09:00:01.647Z,33.03
2018-02-08T09:02:29.003Z,28.85
2018-02-08T09:04:56.611Z,28.60
2018-02-08T09:07:27.131Z,27.45
2018-02-08T09:09:54.625Z,30.50
2018-02-08T09:12:21.311Z,25.20
2018-02-08T09:14:48.036Z,29.17
2018-02-08T09:17:15.341Z,27.45
2018-02-08T09:19:42.044Z,27.70
2018-02-08T09:22:08.711Z,28.98
2018-02-08T09:24:39.931Z,28.60
2018-02-08T09:27:06.719Z,25.80
2018-02-08T09:29:34.278Z,26.00
2018-02-08T09:32:05.401Z,28.38
2018-02-08T09:34:36.213Z,24.67
2018-02-08T09:37:02.863Z,25.62
2018-02-08T09:39:29.523Z,27.92
2018-02-08T09:41:57.773Z,27.62
2018-02-08T09:44:27.151Z,26.52
2018-02-08T09:46:55.146Z,24.30
2018-02-08T09:49:28.661Z,26.45
2018-02-08T09:51:55.480Z,25.02
2018-02-08T09:54:22.250Z,24.42
2018-02-08T09:56:57.936Z,24.15
2018-02-08T09:59:24.720Z,26.10
2018-02-08T10:01:53.417Z,24.92
2018-02-08T10:04:23.379Z,27.20
2018-02-08T10:07:03.686Z,24.42
2018-02-08T10:09:30.587Z,25.05
2018-02-08T10:12:01.218Z,27.77
2018-02-08T10:43:35.554Z,33.70
2018-02-08T10:46:18.121Z,33.13
2018-02-08T11:01:48.989Z,31.90
2018-02-08T11:37:21.319Z,26.20
2018-02-08T11:48:23.864Z,26.27
2018-02-08T11:50:50.561Z,25.37
2018-02-08T11:53:33.952Z,26.75
2018-02-08T11:56:00.624Z,27.40
2018-02-08T11:58:31.033Z,27.10
2018-02-08T12:00:57.716Z,25.92
2018-02-08T12:03:24.499Z,27.92
2018-02-08T12:05:51.159Z,27.00
2018-02-08T12:08:18.234Z,31.37
2018-02-08T12:10:44.941Z,26.30
2018-02-08T12:13:11.629Z,26.62
2018-02-08T12:15:42.273Z,28.58
2018-02-08T12:18:08.920Z,28.65
2018-02-08T12:20:35.663Z,27.55
2018-02-08T12:23:02.937Z,27.42
2018-02-08T12:25:29.631Z,24.30
2018-02-08T12:27:56.383Z,27.45
2018-02-08T12:30:24.073Z,27.35
2018-02-08T12:32:50.725Z,28.10
2018-02-08T12:35:21.876Z,27.95
2018-02-08T12:37:48.494Z,27.05
2018-02-08T12:40:15.145Z,30.95
2018-02-08T12:42:41.848Z,31.55
2018-02-08T12:45:12.619Z,31.02
2018-02-08T12:47:43.608Z,35.22
2018-02-08T12:50:10.314Z,33.83
2018-02-08T12:52:40.043Z,35.38
2018-02-08T12:55:08.764Z,30.27
2018-02-08T12:57:39.338Z,28.75
2018-02-08T13:00:10.137Z,29.12
2018-02-08T13:02:38.319Z,38.40
2018-02-08T13:05:05.185Z,36.05
2018-02-08T13:07:35.764Z,35.67
2018-02-08T13:10:03.275Z,40.65
2018-02-08T13:12:29.955Z,37.63
2018-02-08T13:14:57.424Z,34.58
2018-02-08T13:17:24.138Z,35.33
2018-02-08T13:19:50.793Z,44.00
2018-02-08T13:22:21.486Z,35.70
2018-02-08T13:24:48.158Z,36.60
2018-02-08T13:27:14.852Z,36.03
2018-02-08T13:29:46.117Z,34.55
2018-02-08T13:32:12.828Z,34.22
2018-02-08T13:34:39.546Z,35.78
2018-02-08T13:37:14.743Z,33.35
2018-02-08T13:40:07.461Z,35.15
2018-02-08T13:42:34.196Z,34.20
2018-02-08T13:45:00.988Z,35.45
2018-02-08T13:47:33.443Z,35.78
2018-02-08T13:50:17.263Z,37.13
2018-02-08T13:52:51.272Z,34.20
2018-02-08T13:55:33.632Z,32.05
2018-02-08T13:58:01.709Z,37.03
2018-02-08T14:00:48.907Z,33.40
2018-02-08T14:03:15.577Z,35.08
2018-02-08T14:05:46.951Z,36.58
2018-02-08T14:08:13.610Z,33.60
2018-02-08T14:10:40.251Z,35.85
2018-02-08T14:13:08.331Z,39.63
2018-02-08T14:15:41.487Z,34.97
2018-02-08T14:18:12.447Z,36.35
2018-02-08T14:20:43.488Z,37.63
2018-02-08T14:23:14.479Z,34.40
2018-02-08T14:25:41.169Z,35.50
2018-02-08T14:28:08.820Z,38.22
2018-02-08T14:30:35.701Z,35.70
2018-02-08T14:33:11.383Z,32.58
2018-02-08T14:35:38.055Z,34.63
2018-02-08T14:38:21.399Z,34.85
2018-02-08T14:40:48.361Z,38.50
2018-02-08T14:43:15.392Z,34.88
2018-02-08T14:45:42.809Z,31.37
2018-02-08T14:48:13.452Z,35.70
2018-02-08T14:50:41.056Z,34.63
2018-02-08T14:53:09.592Z,33.03
2018-02-08T14:55:36.839Z,30.50
2018-02-08T14:58:03.488Z,30.25
2018-02-08T15:00:30.231Z,33.58
2018-02-08T15:03:01.180Z,31.87
2018-02-08T15:05:27.972Z,36.15
2018-02-08T15:07:54.652Z,33.15
2018-02-08T15:10:25.263Z,34.38
2018-02-08T15:12:52.581Z,38.97
2018-02-08T15:15:19.397Z,32.80
2018-02-08T15:17:46.233Z,34.40
2018-02-08T15:20:14.050Z,32.03
2018-02-08T15:22:41.041Z,34.90
2018-02-08T15:25:11.037Z,34.45
2018-02-08T15:27:38.077Z,37.67
2018-02-08T15:30:05.588Z,33.67
2018-02-08T15:32:32.302Z,33.17
2018-02-08T15:34:59.038Z,33.55
2018-02-08T15:37:29.668Z,32.88
2018-02-08T15:39:56.397Z,34.03
2018-02-08T15:42:23.133Z,33.83
2018-02-08T15:44:50.635Z,35.05
2018-02-08T15:47:18.004Z,32.17
2018-02-08T15:49:44.653Z,32.28
2018-02-08T15:52:15.348Z,31.85
2018-02-08T15:54:42.898Z,35.45
2018-02-08T15:57:09.725Z,35.35
2018-02-08T15:59:37.182Z,35.60
2018-02-08T16:02:04.995Z,33.95
2018-02-08T16:04:35.632Z,32.22
2018-02-08T16:07:02.672Z,29.75
2018-02-08T16:09:33.486Z,33.70
2018-02-08T16:12:01.390Z,32.40
2018-02-08T16:14:29.831Z,32.50
2018-02-08T16:16:57.779Z,35.28
2018-02-08T16:19:27.387Z,33.95
2018-02-08T16:21:58.212Z,33.67
2018-02-08T16:24:27.741Z,36.50
2018-02-08T16:26:55.029Z,35.38
2018-02-08T16:29:22.518Z,34.58
2018-02-08T16:31:58.924Z,33.17
2018-02-08T16:34:32.036Z,32.50
2018-02-08T16:37:01.644Z,34.58
2018-02-08T16:39:34.822Z,39.38
2018-02-08T16:42:04.677Z,41.45
2018-02-08T16:44:32.525Z,33.10
2018-02-08T16:47:03.646Z,32.65
2018-02-08T16:49:31.522Z,37.03
2018-02-08T16:52:02.661Z,33.90
2018-02-08T16:54:37.353Z,37.67
2018-02-08T16:59:41.968Z,35.65
2018-02-08T17:02:13.026Z,39.00
2018-02-08T17:04:48.870Z,32.72
2018-02-08T17:07:18.734Z,41.83
2018-02-08T17:09:45.647Z,40.53
2018-02-08T17:12:13.569Z,37.40
2018-02-08T17:14:44.898Z,37.55
2018-02-08T17:17:12.035Z,38.70
2018-02-08T17:19:38.920Z,31.85
2018-02-08T17:22:07.003Z,39.00
2018-02-08T17:24:34.552Z,37.63
2018-02-08T17:27:02.818Z,35.13
2018-02-08T17:29:33.784Z,33.35
2018-02-08T17:32:04.364Z,29.23
2018-02-08T17:34:32.015Z,35.60
2018-02-08T17:36:59.952Z,35.42
2018-02-08T17:39:32.647Z,34.78
2018-02-08T17:42:00.141Z,35.83
2018-02-08T17:44:33.015Z,34.03
2018-02-08T17:47:03.578Z,35.13
2018-02-08T17:49:31.368Z,33.08
2018-02-08T17:51:58.928Z,36.08
2018-02-08T17:54:29.440Z,34.95
2018-02-08T17:56:56.168Z,46.00
2018-02-08T17:59:22.996Z,38.83
2018-02-08T18:01:53.906Z,41.37
2018-02-08T18:04:20.752Z,29.65
2018-02-08T18:06:51.516Z,38.75
2018-02-08T18:09:18.237Z,33.42
2018-02-08T18:11:44.932Z,35.10
2018-02-08T18:14:11.691Z,39.25
2018-02-08T18:16:42.561Z,34.83
2018-02-08T18:19:09.294Z,34.80
2018-02-08T18:21:36.035Z,34.95
2018-02-08T18:24:04.324Z,38.83
2018-02-08T18:26:31.912Z,41.83
2018-02-08T18:28:58.721Z,39.08
2018-02-08T18:31:29.768Z,37.75
2018-02-08T18:34:00.465Z,34.47
2018-02-08T18:36:27.492Z,38.42
2018-02-08T18:38:54.178Z,39.80
2018-02-08T18:41:21.615Z,38.45
2018-02-08T18:43:48.248Z,41.65
2018-02-08T18:46:15.077Z,36.63
2018-02-08T18:48:41.889Z,36.25
2018-02-08T18:51:08.651Z,41.97
2018-02-08T18:53:35.440Z,38.17
2018-02-08T18:56:02.114Z,38.70
2018-02-08T18:58:28.820Z,36.80
2018-02-08T19:00:56.152Z,40.70
2018-02-08T19:03:22.825Z,45.45
2018-02-08T19:05:49.542Z,37.95
2018-02-08T19:08:16.226Z,39.95
2018-02-08T19:10:42.884Z,43.95
2018-02-08T19:13:09.546Z,37.10
2018-02-08T19:15:36.240Z,42.28
2018-02-08T19:18:03.044Z,40.08
2018-02-08T19:20:30.335Z,42.15
2018-02-08T19:23:02.120Z,43.87
2018-02-08T19:25:28.964Z,44.47
2018-02-08T19:27:59.905Z,43.05
2018-02-08T19:30:26.587Z,42.75
2018-02-08T19:32:54.091Z,40.42
2018-02-08T19:35:20.875Z,45.28
2018-02-08T19:37:48.465Z,40.83
2018-02-08T19:40:15.150Z,38.25
2018-02-08T19:42:45.861Z,46.33
2018-02-08T19:45:12.765Z,42.00
2018-02-08T19:47:39.526Z,42.65
2018-02-08T19:50:06.207Z,49.15
2018-02-08T19:52:32.865Z,43.78
2018-02-08T19:55:03.797Z,43.72
2018-02-08T19:57:30.482Z,45.17
2018-02-08T19:59:57.176Z,40.12
2018-02-08T20:02:28.066Z,44.95
2018-02-08T20:04:54.753Z,38.17
2018-02-08T20:07:21.526Z,39.08
2018-02-08T20:09:48.193Z,41.53
2018-02-08T20:12:14.938Z,44.63
2018-02-08T20:14:43.534Z,43.28
2018-02-08T20:17:10.220Z,37.05
2018-02-08T20:19:36.905Z,43.80
2018-02-08T20:22:03.584Z,46.28
2018-02-08T20:24:30.217Z,43.97
2018-02-08T20:26:56.900Z,39.38
2018-02-08T20:29:23.605Z,47.88
2018-02-08T20:31:50.346Z,44.38
2018-02-08T20:34:17.025Z,43.58
2018-02-08T20:36:43.731Z,45.58
2018-02-08T20:39:10.555Z,44.38
2018-02-08T20:41:37.405Z,43.47
2018-02-08T20:44:04.074Z,48.75
2018-02-08T20:46:30.871Z,46.45
2018-02-08T20:48:57.638Z,43.42
2018-02-08T20:51:24.295Z,45.38
2018-02-08T20:53:51.033Z,43.05
2018-02-08T20:56:17.683Z,48.50
2018-02-08T20:58:48.274Z,52.80
2018-02-08T21:01:19.004Z,45.85
2018-02-08T21:03:46.210Z,49.70
2018-02-08T21:06:12.883Z,47.50
2018-02-08T21:08:39.769Z,55.83
2018-02-08T21:11:10.481Z,46.78
2018-02-08T21:13:37.211Z,51.45
2018-02-08T21:16:04.124Z,51.92
2018-02-08T21:18:31.030Z,46.00
2018-02-08T21:20:58.004Z,50.83
2018-02-08T21:23:25.374Z,45.15
2018-02-08T21:25:52.303Z,44.45
2018-02-08T21:28:19.189Z,47.08
2018-02-08T21:30:46.093Z,50.47
2018-02-08T21:33:13.338Z,44.42
2018-02-08T21:35:40.449Z,46.42
2018-02-08T21:38:07.367Z,53.90
2018-02-08T21:40:34.197Z,46.78
2018-02-08T21:43:00.967Z,47.05
2018-02-08T21:45:27.736Z,52.08
2018-02-08T21:47:54.464Z,45.58
2018-02-08T21:50:21.345Z,46.00
2018-02-08T21:52:48.203Z,47.33
2018-02-08T21:55:15.009Z,48.17
2018-02-08T21:57:41.979Z,51.70
2018-02-08T22:00:08.693Z,47.97
2018-02-08T22:02:35.555Z,43.92
2018-02-08T22:05:02.332Z,49.03
2018-02-08T22:07:29.851Z,49.88
2018-02-08T22:09:56.815Z,42.62
2018-02-08T22:12:24.077Z,47.15
2018-02-08T22:14:50.926Z,46.83
2018-02-08T22:17:17.750Z,48.47
2018-02-08T22:19:44.738Z,49.30
2018-02-08T22:22:11.536Z,43.42
2018-02-08T22:24:42.865Z,53.40
2018-02-08T22:27:09.513Z,47.00
2018-02-08T22:29:36.274Z,52.53
2018-02-08T22:32:02.896Z,48.42
2018-02-08T22:34:29.559Z,46.28
2018-02-08T22:36:56.610Z,43.15
2018-02-08T22:39:23.244Z,53.25
2018-02-08T22:41:49.884Z,46.72
2018-02-08T22:44:16.508Z,43.42
2018-02-08T22:46:43.161Z,44.60
2018-02-08T22:49:09.808Z,47.85
2018-02-08T22:51:36.491Z,50.65
2018-02-08T22:54:03.124Z,46.22
2018-02-08T22:56:29.913Z,45.47
2018-02-08T22:58:56.545Z,38.50
2018-02-08T23:01:23.986Z,55.50
2018-02-08T23:03:50.724Z,47.62
2018-02-08T23:06:17.340Z,41.05
2018-02-08T23:08:43.989Z,40.28
2018-02-08T23:11:10.614Z,47.30
2018-02-08T23:13:37.269Z,51.03
2018-02-08T23:16:03.879Z,50.67
2018-02-08T23:18:30.621Z,46.88
2018-02-08T23:20:57.315Z,40.60
2018-02-08T23:23:23.912Z,46.00
2018-02-08T23:25:50.561Z,47.92
2018-02-08T23:28:18.087Z,50.50
2018-02-08T23:30:44.712Z,46.33
2018-02-08T23:33:11.356Z,47.25
2018-02-08T23:35:37.962Z,50.58
2018-02-08T23:38:04.636Z,47.65
2018-02-08T23:40:31.288Z,43.67
2018-02-08T23:42:57.901Z,43.60
2018-02-08T23:45:24.564Z,48.33
2018-02-08T23:47:51.225Z,48.65
2018-02-08T23:50:18.457Z,45.92
2018-02-08T23:52:46.065Z,55.83
2018-02-08T23:55:12.814Z,49.30
2018-02-08T23:57:39.437Z,43.40
